• Join FlightAware (Why Join?)
  • Login
  • US Flag GB Flag 
09:39 EDT


 

Airport Tracker/Info


-or-


 

Live Flight TrackerFlight Track Log ✈ CTL21 ✈ 08-May-2013 ✈ KAZO - KBKL

Flight Track Log - Related Links

Times and Time Zones

All times are in EDT time to prevent confusion due to time zone crossing. See the CTL21 flight status page for this flight to view local times or setup timezone preferences in your user account.

Time Position Orientation Groundspeed Altitude Reporting Facility
EDT Latitude Longitude Course Direction KTS MPH feet Rate Location/Type
17:14 42.2619 -85.4114 120° Southeast 157 181 3,400  Level Chicago Center
17:15 42.2411 -85.3581 118° Southeast 160 184 3,900 480 Climbing Chicago Center
17:16 42.2186 -85.3056 120° Southeast 161 185 4,400 480 Climbing Chicago Center
17:17 42.0988 -85.2361 120° Southeast  Level FlightAware Approximate
17:17 42.1919 -85.2486 122° Southeast 153 176 5,000  Level Chicago Center
17:18 42.0770 -85.1832 117° Southeast  Level FlightAware Approximate
17:18 42.1675 -85.1947 121° Southeast 161 185 5,000  Level Chicago Center
17:19 42.1431 -85.1372 120° Southeast 172 198 5,000  Level Chicago Center
17:20 42.1192 -85.0808 120° Southeast 174 200 5,100  Climbing Chicago Center
17:21 42.0956 -85.0256 120° Southeast 171 197 5,000 -60 Descending Chicago Center
17:22 42.0794 -84.9697 111° Southeast 167 192 5,000  Level Chicago Center
17:23 42.0456 -84.9075 126° Southeast 167 192 5,000  Level Chicago Center
17:24 42.0164 -84.8561 127° Southeast 170 196 5,000  Level Chicago Center
17:25 41.9892 -84.8025 124° Southeast 172 198 5,000  Level Chicago Center
17:26 41.9658 -84.7558 124° Southeast 164 189 5,100  Climbing Chicago Center
17:27 41.9439 -84.7136 125° Southeast 152 175 5,000 -60 Descending Chicago Center
17:28 41.9244 -84.6683 120° Southeast 145 167 5,000  Level Chicago Center
17:29 41.8983 -84.6114 122° Southeast 145 167 5,100  Climbing Chicago Center
17:31 41.8750 -84.5572 120° Southeast 155 178 5,000 -60 Descending Chicago Center
17:32 41.8508 -84.5008 120° Southeast 164 189 5,000  Level Chicago Center
17:33 41.8244 -84.4456 123° Southeast 170 196 5,000  Level Chicago Center
17:34 41.8008 -84.3897 120° Southeast 172 198 5,000  Level Chicago Center
17:35 41.7886 -84.3283 105° East 172 198 5,100  Climbing Chicago Center
17:36 41.7753 -84.2528 103° East 173 199 5,100 -60 Level Chicago Center
17:37 41.7614 -84.1906 107° East 174 200 5,000 -60 Descending Chicago Center
17:39 41.7520 -84.0819 118° Southeast  Level Estimated
17:46 41.5400 -83.7663 132° Southeast  Level FlightAware Approximate
17:47 41.5096 -83.7213 132° Southeast  Level FlightAware Approximate
17:48 41.4792 -83.6764 132° Southeast  Level FlightAware Approximate
17:49 41.4809 -83.6160 91° East  Level Estimated
17:50 41.4773 -83.5557 94° East  Level FlightAware Approximate
17:51 41.4737 -83.4954 95° East  Level FlightAware Approximate
17:52 41.4701 -83.4351 95° East  Level FlightAware Approximate
17:53 41.4665 -83.3749 95° East  Level FlightAware Approximate
17:54 41.4628 -83.3146 95° East  Level FlightAware Approximate
17:55 41.4591 -83.2543 95° East  Level FlightAware Approximate
17:56 41.4553 -83.1941 95° East  Level FlightAware Approximate
17:57 41.4515 -83.1338 95° East  Level FlightAware Approximate
17:57 41.5642 -82.9617 90° East 167 192 5,000  Level Cleveland Center
17:58 41.4477 -83.0736 95° East  Level FlightAware Approximate
17:58 41.5631 -82.9142 92° East 164 189 5,000  Level Cleveland Center
17:59 41.4439 -83.0134 95° East  Level FlightAware Approximate
17:59 41.5622 -82.8561 91° East 164 189 5,000  Level Cleveland Center
18:00 41.4400 -82.9531 95° East  Level FlightAware Approximate
18:00 41.5592 -82.7947 94° East 159 183 5,000  Level Cleveland Center
18:01 41.4361 -82.8929 95° East  Level FlightAware Approximate
18:01 41.5519 -82.7419 100° East 163 188 4,900  Level Cleveland Center
18:02 41.4333 -82.8236 90° East  Level FlightAware Approximate
18:02 41.5467 -82.6806 97° East 162 186 4,900  Level Cleveland Center
18:03 41.5436 -82.6278 94° East 161 185 4,900 -300 Level Cleveland Center
18:04 41.5383 -82.5611 96° East 169 194 4,400 -540 Descending Cleveland Center
18:05 41.5375 -82.4944 91° East 181 208 3,800 -780 Descending Cleveland Center
18:06 41.5364 -82.4278 91° East 180 207 2,900 -480 Descending Cleveland Center
18:07 41.5356 -82.3614 91° East 166 191 2,900  Level Cleveland Center
18:08 41.5344 -82.2975 91° East 163 188 2,900  Level Cleveland Center
18:09 41.5331 -82.2392 92° East 165 190 2,900  Level Cleveland Center
18:10 41.5300 -82.1725 93° East 160 184 3,000 -120 Climbing Cleveland Center
18:11 41.5264 -82.1225 95° East 158 182 2,700 -420 Descending Cleveland Center
18:12 41.5253 -82.0558 91° East 168 193 2,300 -420 Descending Cleveland Center
18:13 41.5219 -81.9947 94° East 170 196 1,900 -420 Descending Cleveland Center
18:14 41.5186 -81.9253 94° East 177 204 1,500 -180 Descending Cleveland Center
18:15 41.5150 -81.8725 95° East 160 184 1,600  Climbing Cleveland Center
18:16 41.5114 -81.8061 94° East 148 170 1,500 -60 Descending Cleveland Center
18:17 41.5081 -81.7478 94° East 138 159 1,500  Level Cleveland Center
18:19 41.5175 -81.6833 90° East  Level Estimated